Time;durP1;ratioP1;P1;durP2;ratioP2;P2;SDS_P1;SDS_P2;PMS_P1;PMS_P2;Temp;Humidity;BMP_temperature;BMP_pressure;BME280_temperature;BME280_humidity;BME280_pressure;Samples;Min_cycle;Max_cycle;Signal;HPM_P1;HPM_P2
2022/05/16 04:06:24;;;;;;;4.80;1.90;;;23.40;86.40;;;;;;6225381;23;20051;-51
2022/05/16 04:08:50;;;;;;;1.88;1.10;;;;;;;;;;6245570;23;20050;-53
2022/05/16 04:11:17;;;;;;;2.25;1.30;;;23.10;75.00;;;;;;6245661;23;20008;-53
2022/05/16 04:13:46;;;;;;;3.33;1.73;;;23.20;86.50;;;;;;6245375;23;20082;-53
2022/05/16 04:16:13;;;;;;;3.15;1.60;;;23.50;86.80;;;;;;6245917;23;20053;-53
2022/05/16 04:18:39;;;;;;;2.38;1.33;;;23.10;86.60;;;;;;6245226;23;20000;-53
2022/05/16 04:21:05;;;;;;;3.20;1.50;;;23.10;86.70;;;;;;6245675;23;20024;-52
2022/05/16 04:23:31;;;;;;;3.17;1.30;;;22.90;86.20;;;;;;6245091;23;20042;-53
2022/05/16 04:25:56;;;;;;;2.97;1.52;;;23.60;86.90;;;;;;6245248;23;20003;-53
2022/05/16 04:28:22;;;;;;;3.83;1.60;;;;;;;;;;6245556;23;20004;-52
2022/05/16 04:30:48;;;;;;;2.55;1.50;;;23.60;86.40;;;;;;6245481;23;19993;-52
2022/05/16 04:33:14;;;;;;;2.58;1.40;;;23.20;86.50;;;;;;6245139;23;20020;-54
2022/05/16 04:35:40;;;;;;;3.80;1.63;;;23.20;86.60;;;;;;6245284;23;20008;-52
2022/05/16 04:38:06;;;;;;;3.53;1.45;;;23.00;86.40;;;;;;6245215;23;20454;-53
2022/05/16 04:40:33;;;;;;;2.25;1.40;;;23.60;87.00;;;;;;6245434;23;20000;-51
2022/05/16 04:42:59;;;;;;;3.40;1.77;;;23.60;86.60;;;;;;6245085;23;19993;-51
2022/05/16 04:45:30;;;;;;;2.58;1.20;;;23.50;85.40;;;;;;6245393;23;19996;-50
2022/05/16 04:47:58;;;;;;;2.50;1.60;;;23.40;51.00;;;;;;6245364;23;20045;-53
2022/05/16 04:50:31;;;;;;;4.30;1.40;;;23.50;70.10;;;;;;6255156;23;20423;-53
2022/05/16 04:52:57;;;;;;;3.33;1.50;;;;;;;;;;6245295;23;20049;-53
2022/05/16 04:55:23;;;;;;;2.67;1.40;;;;;;;;;;6245321;23;20043;-51
2022/05/16 04:57:50;;;;;;;4.68;1.50;;;;;;;;;;6218383;23;20016;-50
2022/05/16 05:00:18;;;;;;;3.03;1.65;;;23.20;86.40;;;;;;6245328;23;20031;-52
2022/05/16 05:02:44;;;;;;;3.60;1.60;;;;;;;;;;6244601;23;20018;-49
2022/05/16 05:05:10;;;;;;;3.85;1.60;;;;;;;;;;6245204;23;20004;-54
2022/05/16 05:07:36;;;;;;;2.72;1.48;;;23.40;86.10;;;;;;6245056;23;19996;-53
2022/05/16 05:15:34;;;;;;;2.70;1.50;;;23.50;86.40;;;;;;6255066;23;20019;-50
2022/05/16 05:18:00;;;;;;;3.75;1.83;;;;;;;;;;6245074;23;19996;-58
2022/05/16 05:20:26;;;;;;;2.55;1.38;;;23.80;86.50;;;;;;6244649;23;20015;-55
2022/05/16 05:22:53;;;;;;;3.47;1.70;;;;;;;;;;6245097;23;19993;-54
2022/05/16 05:25:20;;;;;;;2.65;1.60;;;23.50;51.40;;;;;;6245139;23;20004;-52
2022/05/16 05:27:51;;;;;;;3.25;1.65;;;23.40;87.00;;;;;;6243849;23;19992;-54
2022/05/16 05:30:23;;;;;;;3.55;1.70;;;23.20;87.10;;;;;;6246351;23;20054;-55
2022/05/16 05:32:49;;;;;;;3.95;1.67;;;23.50;87.80;;;;;;6247279;23;20411;-54
2022/05/16 05:35:15;;;;;;;1.60;1.15;;;23.00;87.50;;;;;;6247123;23;20036;-54
2022/05/16 05:37:42;;;;;;;3.92;1.17;;;;;;;;;;6247079;23;19992;-55
2022/05/16 05:40:09;;;;;;;4.80;1.75;;;23.60;86.90;;;;;;6247080;23;20004;-55
2022/05/16 05:42:36;;;;;;;4.00;1.40;;;23.00;87.90;;;;;;6247062;23;19996;-54
2022/05/16 05:45:03;;;;;;;3.15;1.58;;;23.40;50.90;;;;;;6246998;23;20079;-55
2022/05/16 05:47:29;;;;;;;3.50;1.58;;;;;;;;;;6247049;23;19996;-55
2022/05/16 05:49:54;;;;;;;2.13;1.10;;;23.60;87.90;;;;;;6246959;23;20000;-52
2022/05/16 05:52:21;;;;;;;2.80;1.70;;;23.70;87.70;;;;;;6247016;23;20369;-56
2022/05/16 05:54:47;;;;;;;4.60;1.50;;;23.50;51.80;;;;;;6246388;23;20473;-56
2022/05/16 05:57:15;;;;;;;5.50;1.90;;;23.50;51.80;;;;;;6246900;23;20085;-55
2022/05/16 05:59:41;;;;;;;5.75;1.90;;;;;;;;;;6246883;23;19996;-57
2022/05/16 06:02:08;;;;;;;5.00;1.60;;;23.50;88.00;;;;;;6245867;23;20569;-55
2022/05/16 06:04:35;;;;;;;4.50;1.83;;;;;;;;;;6216080;23;20493;-56
2022/05/16 06:07:01;;;;;;;3.75;1.83;;;;;;;;;;6215822;23;20007;-56
2022/05/16 06:09:27;;;;;;;4.30;1.75;;;23.60;87.80;;;;;;6215988;23;20036;-56
2022/05/16 06:11:54;;;;;;;4.20;1.20;;;;;;;;;;6215944;23;20003;-55
2022/05/16 06:14:20;;;;;;;6.78;1.50;;;;;;;;;;6216268;23;20009;-55
2022/05/16 06:16:46;;;;;;;7.20;2.17;;;;;;;;;;6215971;23;20415;-55
2022/05/16 06:19:11;;;;;;;6.38;1.65;;;23.80;70.60;;;;;;6216271;23;20079;-55
2022/05/16 06:21:38;;;;;;;4.22;1.50;;;23.70;51.80;;;;;;6216329;23;20416;-55
2022/05/16 06:24:05;;;;;;;9.80;1.50;;;23.30;86.90;;;;;;6215900;23;20005;-54
2022/05/16 06:26:30;;;;;;;5.82;1.83;;;23.60;87.50;;;;;;6215897;23;19996;-56
2022/05/16 06:28:57;;;;;;;9.65;2.38;;;23.80;87.60;;;;;;6216154;23;20007;-56
2022/05/16 06:31:23;;;;;;;8.25;2.10;;;23.90;87.90;;;;;;6215869;23;20431;-56
2022/05/16 06:33:50;;;;;;;4.03;2.10;;;23.50;87.70;;;;;;6216167;23;19997;-54
2022/05/16 06:36:16;;;;;;;5.55;1.80;;;23.80;63.30;;;;;;6215686;23;20055;-56
2022/05/16 06:38:42;;;;;;;8.82;1.83;;;23.70;87.80;;;;;;6215661;23;19993;-56
2022/05/16 06:41:08;;;;;;;4.53;1.90;;;23.30;87.90;;;;;;6225292;23;20024;-56
2022/05/16 06:43:35;;;;;;;4.30;1.33;;;23.80;88.10;;;;;;6215682;23;20000;-55
2022/05/16 06:46:02;;;;;;;4.13;1.52;;;23.60;52.40;;;;;;6215686;23;20001;-57
2022/05/16 06:48:28;;;;;;;8.48;2.10;;;;;;;;;;6216147;23;20000;-56
2022/05/16 06:50:54;;;;;;;4.15;1.83;;;23.60;88.10;;;;;;6215733;23;20015;-57
2022/05/16 06:53:27;;;;;;;5.25;1.73;;;23.50;88.40;;;;;;6215735;23;20080;-56
2022/05/16 06:55:53;;;;;;;4.47;1.80;;;;;;;;;;6215740;23;20035;-55
2022/05/16 06:58:19;;;;;;;2.70;1.67;;;23.70;88.80;;;;;;6215424;23;20443;-54
2022/05/16 07:00:45;;;;;;;3.90;1.83;;;23.20;88.70;;;;;;6215618;23;20024;-56
2022/05/16 07:03:11;;;;;;;5.82;1.98;;;23.60;51.40;;;;;;6215246;23;20135;-55
2022/05/16 07:05:37;;;;;;;4.32;1.90;;;23.80;86.80;;;;;;6189448;23;20371;-56
2022/05/16 07:08:03;;;;;;;5.90;1.73;;;23.80;88.90;;;;;;6215573;23;20001;-57
2022/05/16 07:10:28;;;;;;;4.65;1.73;;;23.90;88.70;;;;;;6215617;23;20450;-57
2022/05/16 07:12:54;;;;;;;4.03;1.80;;;23.80;89.00;;;;;;6215187;23;20054;-56
2022/05/16 07:15:20;;;;;;;4.10;1.92;;;23.50;88.70;;;;;;6215335;23;20096;-57
2022/05/16 07:17:46;;;;;;;3.00;1.90;;;23.80;88.40;;;;;;6215661;23;20366;-57
2022/05/16 07:20:13;;;;;;;5.40;1.77;;;23.80;89.00;;;;;;6215101;23;20428;-55
2022/05/16 07:22:46;;;;;;;6.20;1.92;;;23.80;51.80;;;;;;6215669;23;19992;-56
2022/05/16 07:25:13;;;;;;;2.67;1.58;;;23.50;53.00;;;;;;6215378;23;20028;-56
2022/05/16 07:27:59;;;;;;;4.97;2.13;;;;;;;;;;6215338;23;20055;-57
2022/05/16 07:30:30;;;;;;;3.92;1.83;;;23.30;88.70;;;;;;6215400;23;20008;-56
2022/05/16 07:32:56;;;;;;;4.78;2.00;;;23.20;88.70;;;;;;6213771;23;20331;-56
2022/05/16 07:35:30;;;;;;;4.30;1.83;;;23.70;88.80;;;;;;6215323;23;20008;-56
2022/05/16 07:37:56;;;;;;;5.72;2.08;;;;;;;;;;6214350;23;20324;-55
2022/05/16 07:40:25;;;;;;;5.63;1.90;;;23.60;53.20;;;;;;6215305;23;20010;-56
2022/05/16 07:42:52;;;;;;;7.47;1.88;;;23.70;89.10;;;;;;6215612;23;19993;-55
2022/05/16 07:45:18;;;;;;;6.20;1.73;;;;;;;;;;6214887;23;19996;-55
2022/05/16 07:47:44;;;;;;;3.67;1.70;;;;;;;;;;6215326;23;19997;-55
2022/05/16 07:50:09;;;;;;;3.55;1.75;;;23.70;69.50;;;;;;6215196;23;20054;-54
2022/05/16 07:52:36;;;;;;;2.22;1.58;;;;;;;;;;6224870;23;20423;-55
2022/05/16 07:55:03;;;;;;;4.00;1.67;;;23.90;74.80;;;;;;6214852;23;20423;-55
2022/05/16 07:57:29;;;;;;;3.50;1.77;;;23.60;87.70;;;;;;6214973;23;20327;-56
2022/05/16 07:59:54;;;;;;;4.75;1.73;;;23.70;87.50;;;;;;6215261;23;19997;-55
2022/05/16 08:02:20;;;;;;;2.72;1.60;;;24.00;86.90;;;;;;6214791;23;20067;-54
2022/05/16 08:04:45;;;;;;;5.20;1.63;;;;;;;;;;6215091;23;20005;-56
2022/05/16 08:07:11;;;;;;;2.28;1.67;;;;;;;;;;6215124;23;19992;-55
2022/05/16 08:12:30;;;;;;;3.40;1.80;;;23.70;49.70;;;;;;6214667;23;20475;-55
2022/05/16 08:14:56;;;;;;;3.67;1.73;;;23.70;80.80;;;;;;6214459;23;20343;-55
2022/05/16 08:17:22;;;;;;;2.92;1.33;;;23.80;50.20;;;;;;6214931;23;19993;-55
2022/05/16 08:19:48;;;;;;;3.33;1.85;;;23.60;85.10;;;;;;6214615;23;20050;-55
2022/05/16 08:22:14;;;;;;;4.20;1.52;;;23.70;84.70;;;;;;6214924;23;20292;-56
2022/05/16 08:24:40;;;;;;;3.47;1.52;;;24.10;85.00;;;;;;6215006;23;20072;-55
2022/05/16 08:27:06;;;;;;;3.22;1.70;;;;;;;;;;6214500;23;20495;-56
2022/05/16 08:29:32;;;;;;;2.17;1.40;;;24.10;84.90;;;;;;6214164;23;20000;-55
2022/05/16 08:31:58;;;;;;;2.95;1.73;;;24.20;84.90;;;;;;6214939;23;19996;-55
2022/05/16 08:34:24;;;;;;;1.38;1.27;;;23.80;84.40;;;;;;6214598;23;20335;-56
2022/05/16 08:39:52;;;;;;;2.78;1.60;;;24.40;85.00;;;;;;6224564;23;20066;-56
2022/05/16 08:42:39;;;;;;;2.30;1.13;;;23.90;84.60;;;;;;6214821;23;20001;-56
2022/05/16 08:45:15;;;;;;;3.03;1.58;;;24.20;50.30;;;;;;6214755;23;20374;-52
2022/05/16 08:47:53;;;;;;;2.33;1.25;;;24.30;70.40;;;;;;6214554;23;19996;-55
2022/05/16 08:50:28;;;;;;;5.22;1.83;;;24.20;49.20;;;;;;6214240;23;20011;-55
2022/05/16 08:53:06;;;;;;;2.35;1.25;;;24.40;78.80;;;;;;6214348;23;20435;-55
2022/05/16 08:55:48;;;;;;;3.83;1.30;;;24.50;85.00;;;;;;6214589;23;20009;-55
2022/05/16 08:58:18;;;;;;;2.65;1.70;;;24.40;82.40;;;;;;6214774;23;20371;-55
2022/05/16 09:00:54;;;;;;;3.30;1.40;;;24.60;58.90;;;;;;6214677;23;20011;-54
2022/05/16 09:03:26;;;;;;;3.05;1.50;;;24.30;50.50;;;;;;6214098;23;20009;-55
2022/05/16 09:06:11;;;;;;;3.15;1.48;;;24.20;57.60;;;;;;6214125;23;20020;-55
2022/05/16 09:08:49;;;;;;;2.78;1.40;;;24.40;49.40;;;;;;6214599;23;20084;-55
2022/05/16 09:11:52;;;;;;;3.60;1.70;;;24.30;76.10;;;;;;6224459;23;20112;-55
2022/05/16 09:14:48;;;;;;;3.78;1.60;;;24.60;54.20;;;;;;6214205;23;20420;-56
2022/05/16 09:17:28;;;;;;;3.90;1.50;;;24.40;85.20;;;;;;6224421;23;20071;-56
2022/05/16 09:20:00;;;;;;;6.43;1.20;;;24.50;85.10;;;;;;6214628;23;20367;-55
2022/05/16 09:22:39;;;;;;;2.42;1.33;;;24.90;54.60;;;;;;6223692;23;20092;-56
2022/05/16 09:25:15;;;;;;;1.50;1.10;;;24.60;85.40;;;;;;6214632;23;20012;-55
2022/05/16 09:30:31;;;;;;;3.83;1.60;;;;;;;;;;6214269;23;20055;-56
2022/05/16 09:33:09;;;;;;;4.00;1.70;;;25.20;86.30;;;;;;6214632;23;20005;-56
2022/05/16 09:35:45;;;;;;;4.32;1.50;;;24.90;50.50;;;;;;6214119;23;20060;-55
2022/05/16 09:38:11;;;;;;;2.10;1.63;;;25.00;75.80;;;;;;6214019;23;20046;-55
2022/05/16 09:40:40;;;;;;;2.85;1.70;;;25.00;86.10;;;;;;6223491;23;20000;-56
2022/05/16 09:43:14;;;;;;;3.10;1.45;;;25.20;86.00;;;;;;6223350;23;20348;-58
2022/05/16 09:45:45;;;;;;;4.40;1.73;;;25.00;85.30;;;;;;6224371;23;20006;-55
2022/05/16 09:48:19;;;;;;;4.35;1.50;;;25.20;85.30;;;;;;6214670;23;19997;-55
2022/05/16 09:51:01;;;;;;;3.13;1.40;;;24.80;85.10;;;;;;6214605;23;20000;-56
2022/05/16 09:53:36;;;;;;;4.03;1.48;;;24.90;49.60;;;;;;6213984;23;19997;-56
2022/05/16 09:56:17;;;;;;;2.25;1.48;;;25.10;85.20;;;;;;6214104;23;20012;-57
2022/05/16 09:58:50;;;;;;;2.10;1.23;;;25.20;71.40;;;;;;6214128;23;20000;-57
2022/05/16 10:01:44;;;;;;;4.78;1.63;;;25.10;80.50;;;;;;6214492;23;20377;-56
2022/05/16 10:04:18;;;;;;;6.00;1.58;;;24.60;84.70;;;;;;6214656;23;20009;-56
2022/05/16 10:07:01;;;;;;;2.72;1.30;;;25.00;68.40;;;;;;6214488;23;20004;-55
2022/05/16 10:09:37;;;;;;;3.58;1.50;;;24.50;85.00;;;;;;6214333;23;19993;-56
2022/05/16 10:12:08;;;;;;;4.57;1.30;;;24.80;50.80;;;;;;6214480;23;20012;-56
2022/05/16 10:14:36;;;;;;;2.42;1.42;;;24.50;84.80;;;;;;6188700;23;20005;-56
2022/05/16 10:17:03;;;;;;;4.82;1.58;;;24.30;55.70;;;;;;6215893;23;20020;-56
2022/05/16 10:19:31;;;;;;;3.83;1.15;;;;;;;;;;6216149;23;20070;-55
2022/05/16 10:22:05;;;;;;;2.67;1.38;;;24.70;50.00;;;;;;6215932;23;20005;-56
2022/05/16 10:24:34;;;;;;;1.85;1.38;;;24.70;85.60;;;;;;6215543;23;19996;-55
2022/05/16 10:27:06;;;;;;;4.60;1.45;;;24.60;51.10;;;;;;6216068;23;20000;-56
2022/05/16 10:29:35;;;;;;;2.90;1.60;;;26.70;52.50;;;;;;6216053;23;20004;-55
2022/05/16 10:34:51;;;;;;;5.20;1.55;;;24.90;55.90;;;;;;6225502;23;20402;-56
2022/05/16 10:37:18;;;;;;;2.03;1.45;;;24.50;85.50;;;;;;6215592;23;20008;-56
2022/05/16 10:39:49;;;;;;;2.50;1.42;;;24.80;69.30;;;;;;6215903;23;20028;-55
2022/05/16 10:42:24;;;;;;;2.47;1.52;;;24.20;85.40;;;;;;6216075;23;20001;-56
2022/05/16 10:45:31;;;;;;;2.50;1.20;;;24.40;76.50;;;;;;6189871;23;20024;-57
2022/05/16 10:48:14;;;;;;;5.15;1.38;;;24.80;85.80;;;;;;6094219;23;20009;-54
2022/05/16 10:51:10;;;;;;;7.03;1.60;;;24.50;85.50;;;;;;6205104;23;20027;-56
2022/05/16 10:54:00;;;;;;;3.08;1.10;;;24.90;60.80;;;;;;6215638;23;20007;-56
2022/05/16 10:56:38;;;;;;;4.63;1.25;;;24.70;86.00;;;;;;6215525;23;20005;-56
2022/05/16 10:59:19;;;;;;;4.78;1.20;;;24.40;50.20;;;;;;6215486;23;20455;-55
2022/05/16 11:01:55;;;;;;;3.50;1.33;;;24.60;85.90;;;;;;6215228;23;20027;-56
2022/05/16 11:04:49;;;;;;;3.67;1.30;;;24.40;85.90;;;;;;6215661;23;20031;-44
2022/05/16 11:07:26;;;;;;;3.15;1.25;;;24.90;86.20;;;;;;6225543;23;20447;-43
2022/05/16 11:10:21;;;;;;;2.50;1.05;;;24.60;52.10;;;;;;6215727;23;20075;-41
2022/05/16 11:13:20;;;;;;;2.17;1.17;;;24.90;61.30;;;;;;6211712;23;20001;-44
2022/05/16 11:16:09;;;;;;;3.33;1.53;;;24.60;86.10;;;;;;6189139;23;20028;-45
2022/05/16 11:19:05;;;;;;;4.20;1.27;;;24.90;85.90;;;;;;6215224;23;20274;-44
2022/05/16 11:21:44;;;;;;;1.73;1.10;;;24.70;86.00;;;;;;6215647;23;19996;-44
2022/05/16 11:24:28;;;;;;;3.47;1.50;;;24.50;59.70;;;;;;6215680;23;20024;-43
2022/05/16 11:27:07;;;;;;;5.15;1.98;;;24.30;61.30;;;;;;6215476;23;20005;-43
2022/05/16 11:29:38;;;;;;;4.60;2.95;;;24.90;87.80;;;;;;6215711;23;19997;-43
2022/05/16 11:32:26;;;;;;;7.25;3.97;;;24.60;52.60;;;;;;6215632;23;20028;-43
2022/05/16 11:35:04;;;;;;;6.25;3.88;;;24.10;77.30;;;;;;6215418;23;20004;-44
2022/05/16 11:37:59;;;;;;;5.75;4.15;;;24.40;61.60;;;;;;6215579;23;19996;-44
2022/05/16 11:40:34;;;;;;;10.48;4.28;;;24.80;88.90;;;;;;6215536;23;20004;-43
2022/05/16 11:43:13;;;;;;;9.35;4.50;;;24.60;89.00;;;;;;6215557;23;20047;-45
2022/05/16 11:46:20;;;;;;;9.25;4.32;;;24.50;53.40;;;;;;6215570;23;20074;-42
2022/05/16 11:49:02;;;;;;;17.23;5.10;;;24.40;89.00;;;;;;6215323;23;20005;-43
2022/05/16 11:51:48;;;;;;;7.30;3.92;;;24.60;60.20;;;;;;6215303;23;20051;-43
2022/05/16 11:54:19;;;;;;;9.07;4.63;;;24.70;89.30;;;;;;6225043;23;20074;-44
2022/05/16 12:02:28;;;;;;;14.80;5.50;;;24.00;64.80;;;;;;6224767;23;20501;-43
2022/05/16 12:05:07;;;;;;;9.00;4.20;;;24.20;78.00;;;;;;6225078;23;20064;-43
2022/05/16 12:07:35;;;;;;;13.18;5.00;;;24.70;89.20;;;;;;6215295;23;20000;-43
2022/05/16 12:10:22;;;;;;;13.13;5.22;;;24.40;89.20;;;;;;6215046;23;20003;-43
2022/05/16 12:13:23;;;;;;;11.70;4.70;;;24.40;62.50;;;;;;6214873;23;19993;-43
2022/05/16 12:16:27;;;;;;;10.32;4.85;;;24.30;89.10;;;;;;6205587;23;20012;-43
2022/05/16 12:19:30;;;;;;;11.30;4.30;;;24.50;53.50;;;;;;6188033;23;20000;-43
2022/05/16 12:22:11;;;;;;;12.32;3.88;;;24.30;63.30;;;;;;6177022;23;20047;-43
2022/05/16 12:24:52;;;;;;;13.57;4.95;;;24.50;53.60;;;;;;6214810;23;19992;-44
2022/05/16 12:27:35;;;;;;;10.63;4.25;;;24.50;56.20;;;;;;6214254;23;20470;-43
2022/05/16 12:30:19;;;;;;;12.25;3.67;;;24.40;88.70;;;;;;6214823;23;20421;-43
2022/05/16 12:32:51;;;;;;;8.90;3.92;;;24.80;88.50;;;;;;6214818;23;20438;-43
2022/05/16 12:35:39;;;;;;;10.75;3.75;;;24.90;68.20;;;;;;6214637;23;20015;-43
2022/05/16 12:38:06;;;;;;;7.35;2.92;;;24.40;88.00;;;;;;6214550;23;20305;-43
2022/05/16 12:40:32;;;;;;;10.95;3.33;;;24.60;81.50;;;;;;6224203;23;20005;-43
2022/05/16 12:43:23;;;;;;;8.45;3.70;;;24.40;53.40;;;;;;6214992;23;20058;-43
2022/05/16 12:46:00;;;;;;;8.13;3.20;;;24.90;87.50;;;;;;6214638;23;20482;-44
2022/05/16 12:48:55;;;;;;;9.23;3.10;;;24.30;86.70;;;;;;6214259;23;20043;-43
2022/05/16 12:51:35;;;;;;;8.85;3.30;;;24.50;86.80;;;;;;6214569;23;20000;-43
2022/05/16 12:54:19;;;;;;;11.43;3.55;;;24.70;52.60;;;;;;6214772;23;20448;-43
2022/05/16 12:56:56;;;;;;;10.90;3.00;;;24.70;52.60;;;;;;6214684;23;20355;-43
2022/05/16 12:59:49;;;;;;;11.02;3.60;;;24.60;66.20;;;;;;6214766;23;20008;-43
2022/05/16 13:02:29;;;;;;;9.40;4.28;;;24.50;87.20;;;;;;6214003;23;20012;-42
2022/05/16 13:05:25;;;;;;;10.38;3.75;;;24.90;87.60;;;;;;6214858;23;20396;-43
2022/05/16 13:08:24;;;;;;;11.38;4.70;;;24.30;87.00;;;;;;6214774;23;20001;-43
2022/05/16 13:11:18;;;;;;;10.73;3.90;;;24.70;57.10;;;;;;6214220;23;19996;-43
2022/05/16 13:14:14;;;;;;;13.05;4.45;;;24.70;53.10;;;;;;6214458;23;20027;-42
2022/05/16 13:16:51;;;;;;;14.13;4.03;;;24.70;53.70;;;;;;6214277;23;20084;-42
2022/05/16 13:19:18;;;;;;;9.65;3.88;;;24.70;54.00;;;;;;6214761;23;20001;-43
2022/05/16 13:21:53;;;;;;;10.40;4.03;;;27.50;55.30;;;;;;6214674;23;20123;-43
2022/05/16 13:24:21;;;;;;;12.20;3.78;;;24.50;87.80;;;;;;6214719;23;20000;-43
2022/05/16 13:29:34;;;;;;;7.57;3.55;;;24.70;87.30;;;;;;6224520;23;20012;-43
2022/05/16 13:32:12;;;;;;;7.55;3.80;;;24.80;87.30;;;;;;6214739;23;19993;-42
2022/05/16 13:34:52;;;;;;;7.68;3.25;;;25.20;87.20;;;;;;6214386;23;20305;-43
2022/05/16 13:37:50;;;;;;;10.88;3.53;;;25.30;58.90;;;;;;6214713;23;20001;-42
2022/05/16 13:40:31;;;;;;;7.40;3.25;;;24.80;86.20;;;;;;6208373;23;19997;-43
2022/05/16 13:42:57;;;;;;;10.75;3.53;;;25.10;87.10;;;;;;6224370;23;19997;-42
2022/05/16 13:45:28;;;;;;;9.25;3.70;;;25.00;86.80;;;;;;6214262;23;20059;-43
2022/05/16 13:48:07;;;;;;;8.85;3.00;;;25.10;86.30;;;;;;6224342;23;19993;-43
2022/05/16 13:50:34;;;;;;;8.80;2.88;;;25.20;86.80;;;;;;6215010;23;20011;-43
2022/05/16 13:53:00;;;;;;;9.80;3.33;;;;;;;;;;6216466;23;20019;-43
2022/05/16 13:55:27;;;;;;;6.95;2.67;;;25.50;86.50;;;;;;6215783;23;20088;-43
2022/05/16 13:57:52;;;;;;;4.30;2.22;;;25.40;86.30;;;;;;6216361;23;19992;-43
2022/05/16 14:00:41;;;;;;;7.75;2.63;;;25.40;86.20;;;;;;6216328;23;20048;-43
2022/05/16 14:03:28;;;;;;;6.22;2.28;;;25.50;52.30;;;;;;6188531;23;20008;-43
2022/05/16 14:05:55;;;;;;;4.95;2.63;;;25.90;67.20;;;;;;6216421;23;20020;-43
2022/05/16 14:08:41;;;;;;;6.82;2.65;;;25.80;86.30;;;;;;6216467;23;20017;-56
2022/05/16 14:11:20;;;;;;;6.40;2.67;;;25.90;86.30;;;;;;6216363;23;20334;-55
2022/05/16 14:13:51;;;;;;;4.82;2.45;;;25.90;68.20;;;;;;6216322;23;20023;-55
2022/05/16 14:16:36;;;;;;;5.55;2.00;;;25.80;86.10;;;;;;6216351;23;20012;-56
2022/05/16 14:19:10;;;;;;;4.57;2.75;;;26.00;61.70;;;;;;6216312;23;19993;-55
2022/05/16 14:21:52;;;;;;;5.47;2.42;;;25.70;74.30;;;;;;6216245;23;20000;-55
2022/05/16 14:24:24;;;;;;;7.95;2.25;;;25.90;66.20;;;;;;6216344;23;20004;-56
2022/05/16 14:26:51;;;;;;;6.90;2.22;;;26.00;60.80;;;;;;6226172;23;20000;-55
2022/05/16 14:29:27;;;;;;;4.88;2.00;;;25.70;51.20;;;;;;6216267;23;20054;-55
2022/05/16 14:31:59;;;;;;;7.63;2.67;;;25.80;85.50;;;;;;6216505;23;20080;-55
2022/05/16 14:34:35;;;;;;;7.60;2.00;;;25.60;85.30;;;;;;6216147;23;20001;-55
2022/05/16 14:37:23;;;;;;;6.25;2.20;;;26.50;79.30;;;;;;6216129;23;20036;-54
2022/05/16 14:40:03;;;;;;;6.25;3.05;;;25.90;85.50;;;;;;6225618;23;20100;-55
2022/05/16 14:42:35;;;;;;;4.60;2.30;;;26.20;85.60;;;;;;6215589;23;20460;-55
2022/05/16 14:45:13;;;;;;;4.40;2.08;;;25.50;84.90;;;;;;6215903;23;19997;-56
2022/05/16 14:47:48;;;;;;;3.85;2.15;;;26.20;85.60;;;;;;6216106;23;20087;-42
2022/05/16 14:50:20;;;;;;;6.13;2.22;;;25.90;51.10;;;;;;6216030;23;20000;-42
2022/05/16 14:53:03;;;;;;;3.72;1.60;;;26.00;51.30;;;;;;6215622;23;19996;-42
2022/05/16 14:55:35;;;;;;;4.50;2.28;;;26.20;85.20;;;;;;6216070;23;20016;-43
2022/05/16 14:58:02;;;;;;;4.93;2.08;;;25.50;85.10;;;;;;6215914;23;20072;-43
2022/05/16 15:06:00;;;;;;;4.50;1.90;;;26.00;84.70;;;;;;6215559;23;20015;-43
2022/05/16 15:08:30;;;;;;;4.00;1.90;;;25.70;84.40;;;;;;6215517;23;20028;-44
2022/05/16 15:10:57;;;;;;;4.25;1.85;;;25.80;84.70;;;;;;6215490;23;20020;-43
2022/05/16 15:13:23;;;;;;;8.25;2.30;;;26.00;85.20;;;;;;6215512;23;20004;-43
2022/05/16 15:15:49;;;;;;;3.33;1.73;;;25.60;85.00;;;;;;6215749;23;20011;-43
2022/05/16 15:18:16;;;;;;;6.70;1.98;;;;;;;;;;6225405;23;19996;-42
2022/05/16 15:20:44;;;;;;;2.70;1.60;;;25.50;59.50;;;;;;6215789;23;20327;-43
2022/05/16 15:23:10;;;;;;;3.22;1.77;;;;;;;;;;6215603;23;19997;-43
2022/05/16 15:25:36;;;;;;;4.38;2.10;;;;;;;;;;6215581;23;20051;-43
2022/05/16 15:28:03;;;;;;;3.60;1.70;;;25.60;51.80;;;;;;6215101;23;20004;-43
2022/05/16 15:30:29;;;;;;;4.07;2.03;;;25.80;85.40;;;;;;6215425;23;20001;-43
2022/05/16 15:32:54;;;;;;;3.25;1.75;;;25.50;85.30;;;;;;6215284;23;20036;-43
2022/05/16 15:35:21;;;;;;;3.00;1.80;;;;;;;;;;6215187;23;20074;-43
2022/05/16 15:37:48;;;;;;;3.08;1.48;;;25.60;51.40;;;;;;6215368;23;20003;-43
2022/05/16 15:40:15;;;;;;;4.80;2.03;;;25.70;75.30;;;;;;6215312;23;20001;-44
2022/05/16 15:42:40;;;;;;;3.40;1.63;;;25.40;85.00;;;;;;6215299;23;20007;-42
2022/05/16 15:45:07;;;;;;;3.97;1.80;;;25.70;60.70;;;;;;6215190;23;20020;-42
2022/05/16 15:47:40;;;;;;;5.65;1.60;;;25.50;85.30;;;;;;6215258;23;20327;-42
2022/05/16 15:50:08;;;;;;;3.85;1.88;;;25.30;79.20;;;;;;6214887;23;20024;-43
2022/05/16 15:52:35;;;;;;;3.45;1.75;;;25.50;64.30;;;;;;6215221;23;20391;-43
2022/05/16 15:55:03;;;;;;;2.63;1.50;;;;;;;;;;6215051;23;20023;-43
2022/05/16 15:57:29;;;;;;;4.00;1.80;;;25.70;85.80;;;;;;6215193;23;20313;-42
2022/05/16 15:59:54;;;;;;;2.20;1.30;;;25.60;85.50;;;;;;6215238;23;20319;-56
2022/05/16 16:02:23;;;;;;;4.68;1.65;;;25.10;85.10;;;;;;6202293;23;20467;-56
2022/05/16 16:10:20;;;;;;;2.75;1.40;;;25.40;51.80;;;;;;6224751;23;20019;-55
2022/05/16 16:12:46;;;;;;;1.10;1.00;;;;;;;;;;6214629;23;20446;-56
2022/05/16 16:15:14;;;;;;;4.55;1.75;;;;;;;;;;6224465;23;20083;-56
2022/05/16 16:17:41;;;;;;;3.40;1.55;;;25.60;85.80;;;;;;6214735;23;20071;-55
2022/05/16 16:20:08;;;;;;;3.78;1.50;;;25.00;85.60;;;;;;6214596;23;20008;-56
2022/05/16 16:22:36;;;;;;;4.75;1.60;;;25.50;59.40;;;;;;6214777;23;20012;-56
2022/05/16 16:25:18;;;;;;;3.67;1.30;;;25.30;85.40;;;;;;6214437;23;20020;-55
2022/05/16 16:27:45;;;;;;;2.78;1.25;;;;;;;;;;6214909;23;20005;-56
2022/05/16 16:30:12;;;;;;;1.88;1.08;;;25.20;85.80;;;;;;6214788;23;20316;-55
2022/05/16 16:32:38;;;;;;;5.70;1.88;;;25.00;69.90;;;;;;6214789;23;20001;-56
2022/05/16 16:35:07;;;;;;;3.28;1.67;;;25.20;51.40;;;;;;6214287;23;20012;-55
2022/05/16 16:37:33;;;;;;;5.28;1.67;;;25.20;85.80;;;;;;6214636;23;20000;-56
2022/05/16 16:39:58;;;;;;;4.00;1.60;;;24.90;85.40;;;;;;6214837;23;20294;-55
2022/05/16 16:42:24;;;;;;;4.72;1.40;;;24.80;85.70;;;;;;6214413;23;20036;-55
2022/05/16 16:44:50;;;;;;;3.30;1.55;;;;;;;;;;6214717;23;20008;-56
2022/05/16 16:47:16;;;;;;;3.70;1.20;;;;;;;;;;6214472;23;20058;-56
2022/05/16 16:49:42;;;;;;;2.85;1.10;;;;;;;;;;6214594;23;20005;-55
2022/05/16 16:57:43;;;;;;;5.95;1.35;;;24.90;85.70;;;;;;6224505;23;20480;-54
2022/05/16 17:00:14;;;;;;;5.60;1.58;;;25.50;86.10;;;;;;6224536;23;20072;-55
2022/05/16 17:02:46;;;;;;;5.28;1.67;;;25.10;51.30;;;;;;6214312;23;20009;-55
2022/05/16 17:05:17;;;;;;;3.47;1.10;;;25.10;51.20;;;;;;6214907;23;20004;-55
2022/05/16 17:07:45;;;;;;;5.63;1.45;;;25.00;85.40;;;;;;6214521;23;20011;-55
2022/05/16 17:10:15;;;;;;;2.83;1.10;;;25.30;85.80;;;;;;6214429;23;20005;-55
2022/05/16 17:12:41;;;;;;;6.50;1.35;;;;;;;;;;6214330;23;19993;-56
2022/05/16 17:15:08;;;;;;;4.57;1.08;;;;;;;;;;6214509;23;20449;-55
2022/05/16 17:17:34;;;;;;;5.57;1.42;;;25.00;63.40;;;;;;6214665;23;20312;-55
2022/05/16 17:20:00;;;;;;;3.45;1.23;;;25.00;51.00;;;;;;6214402;23;20176;-56
2022/05/16 17:22:26;;;;;;;1.63;0.70;;;25.00;73.30;;;;;;6214690;23;19997;-56
2022/05/16 17:34:59;;;;;;;4.57;1.35;;;24.70;74.90;;;;;;6226403;23;20020;-55
2022/05/16 17:37:25;;;;;;;4.68;1.70;;;24.40;85.70;;;;;;6216804;23;20001;-55
2022/05/16 17:39:50;;;;;;;3.80;1.45;;;24.70;85.80;;;;;;6226404;23;20114;-56
2022/05/16 17:42:17;;;;;;;4.32;1.05;;;;;;;;;;6216412;23;19993;-57
2022/05/16 17:44:43;;;;;;;4.78;1.10;;;25.10;85.90;;;;;;6226233;23;20039;-56
2022/05/16 17:47:09;;;;;;;3.95;1.20;;;24.90;86.20;;;;;;6216740;23;20024;-57
2022/05/16 17:49:35;;;;;;;5.10;1.30;;;25.10;86.20;;;;;;6216527;23;20001;-57
2022/05/16 17:52:04;;;;;;;3.38;1.02;;;24.90;86.10;;;;;;6216554;23;20076;-57
2022/05/16 17:54:38;;;;;;;3.60;1.45;;;24.90;51.60;;;;;;6216422;23;20003;-56
2022/05/16 17:57:04;;;;;;;3.50;1.17;;;;;;;;;;6216318;23;20001;-55
2022/05/16 17:59:30;;;;;;;2.60;0.80;;;;;;;;;;6189943;23;20424;-57
2022/05/16 18:01:58;;;;;;;4.40;1.17;;;24.90;51.80;;;;;;6215644;23;20013;-56
2022/05/16 18:04:24;;;;;;;4.03;0.98;;;24.90;86.40;;;;;;6216260;23;20030;-56
2022/05/16 18:06:50;;;;;;;2.25;0.80;;;24.90;63.70;;;;;;6215827;23;20469;-56
2022/05/16 18:09:18;;;;;;;4.50;1.10;;;25.00;53.70;;;;;;6216294;23;20071;-55
2022/05/16 18:14:29;;;;;;;4.10;1.27;;;25.30;81.50;;;;;;6225882;23;20031;-56
2022/05/16 18:16:56;;;;;;;5.18;1.40;;;24.60;86.00;;;;;;6216130;23;20001;-57
2022/05/16 18:19:23;;;;;;;5.30;1.27;;;;;;;;;;6216223;23;19996;-55
2022/05/16 18:21:49;;;;;;;2.22;0.75;;;24.70;85.80;;;;;;6225710;23;20007;-57
2022/05/16 18:24:17;;;;;;;3.80;1.55;;;24.60;86.10;;;;;;6216059;23;20000;-56
2022/05/16 18:26:45;;;;;;;2.83;0.88;;;24.70;86.30;;;;;;6216166;23;20161;-56